Time;durP1;ratioP1;P1;durP2;ratioP2;P2;SDS_P1;SDS_P2;PMS_P1;PMS_P2;Temp;Humidity;BMP_temperature;BMP_pressure;BME280_temperature;BME280_humidity;BME280_pressure;Samples;Min_cycle;Max_cycle;Signal;HPM_P1;HPM_P2
2022/01/03 00:00:19;;;;;;;80.32;29.70;;;;;;;;;;5039137;28;20041;-70
2022/01/03 00:02:47;;;;;;;47.80;21.17;;;;;;;;;;5038043;28;20033;-70
2022/01/03 00:05:15;;;;;;;30.67;14.30;;;;;;;;;;5038975;28;20330;-70
2022/01/03 00:07:43;;;;;;;31.30;13.90;;;;;;;;;;5039068;28;20030;-69
2022/01/03 00:10:11;;;;;;;45.17;22.35;;;;;;;;;;5037931;28;20025;-69
2022/01/03 00:12:39;;;;;;;46.63;24.50;;;;;;;;;;5038801;28;20029;-70
2022/01/03 00:15:08;;;;;;;56.45;22.75;;;;;;;;;;5038844;28;20028;-70
2022/01/03 00:17:36;;;;;;;56.25;23.45;;;;;;;;;;5038724;28;20032;-70
2022/01/03 00:20:06;;;;;;;33.42;17.30;;;;;;;;;;5038742;28;20060;-70
2022/01/03 00:22:37;;;;;;;37.42;17.77;;;;;;;;;;5037619;28;20033;-69
2022/01/03 00:25:06;;;;;;;44.67;20.25;;;;;;;;;;5037801;28;20029;-69
2022/01/03 00:27:58;;;;;;;31.38;15.80;;;;;;;;;;5038658;28;20029;-70
2022/01/03 00:30:26;;;;;;;33.60;18.17;;;;;;;;;;5038575;28;20083;-69
2022/01/03 00:32:54;;;;;;;39.90;19.13;;;;;;;;;;5036510;28;20037;-69
2022/01/03 00:35:22;;;;;;;40.95;19.15;;;;;;;;;;5036602;28;20132;-70
2022/01/03 00:37:49;;;;;;;38.28;19.17;;;;;;;;;;5019946;28;20112;-70
2022/01/03 00:40:19;;;;;;;27.55;14.70;;;;;;;;;;5020053;28;20021;-69
2022/01/03 00:42:46;;;;;;;48.30;22.95;;;;;;;;;;5036631;28;20412;-69
2022/01/03 00:45:14;;;;;;;68.95;29.90;;;;;;;;;;5036520;28;20053;-70
2022/01/03 00:47:45;;;;;;;84.13;35.40;;;;;;;;;;5036248;28;20038;-69
2022/01/03 00:50:15;;;;;;;50.17;22.50;;;;;;;;;;5036246;28;20045;-70
2022/01/03 00:52:41;;;;;;;36.67;17.77;;;;;;;;;;5019646;28;20157;-69
2022/01/03 00:55:09;;;;;;;74.07;32.20;;;;;;;;;;5019588;28;20025;-70
2022/01/03 00:57:56;;;;;;;31.10;14.80;;;;;;;;;;5036027;28;20041;-69
2022/01/03 01:00:26;;;;;;;79.68;34.13;;;;;;;;;;5036242;28;20029;-69
2022/01/03 01:03:00;;;;;;;81.10;33.95;;;;;;;;;;5019587;28;20032;-69
2022/01/03 01:05:28;;;;;;;77.55;35.67;;;;;;;;;;5036765;28;20029;-69
2022/01/03 01:07:56;;;;;;;63.08;29.15;;;;;;;;;;5037817;28;20033;-69
2022/01/03 01:10:29;;;;;;;54.88;24.60;;;;;;;;;;5036792;28;20441;-70
2022/01/03 01:12:57;;;;;;;50.33;23.23;;;;;;;;;;5037749;28;20411;-69
2022/01/03 01:15:29;;;;;;;49.25;25.00;;;;;;;;;;5037682;28;20025;-69
2022/01/03 01:18:03;;;;;;;66.47;31.25;;;;;;;;;;5037654;28;20448;-70
2022/01/03 01:20:31;;;;;;;71.57;33.08;;;;;;;;;;5037681;28;20072;-70
2022/01/03 01:22:59;;;;;;;78.57;36.78;;;;;;;;;;4996148;28;20242;-69
2022/01/03 01:28:15;;;;;;;110.90;50.13;;;;;;;;;;4957335;29;20031;-69
2022/01/03 01:30:44;;;;;;;122.90;50.78;;;;;;;;;;4957358;29;20130;-69
2022/01/03 01:33:15;;;;;;;125.10;52.78;;;;;;;;;;4957201;29;20062;-69
2022/01/03 01:35:53;;;;;;;110.63;48.72;;;;;;;;;;4957293;29;20322;-70
2022/01/03 01:38:23;;;;;;;104.03;43.78;;;;;;;;;;4957242;29;20075;-69
2022/01/03 01:40:52;;;;;;;107.45;45.72;;;;;;;;;;4957074;29;20118;-70
2022/01/03 01:43:37;;;;;;;114.57;46.53;;;;;;;;;;4957216;29;20042;-69
2022/01/03 01:46:13;;;;;;;89.95;37.42;;;;;;;;;;4957131;29;20047;-69
2022/01/03 01:48:40;;;;;;;68.35;29.80;;;;;;;;;;4956813;29;20429;-69
2022/01/03 01:51:08;;;;;;;62.35;28.52;;;;;;;;;;4956896;29;20043;-69
2022/01/03 01:53:47;;;;;;;58.67;26.00;;;;;;;;;;4956861;29;20051;-69
2022/01/03 01:56:20;;;;;;;61.75;26.38;;;;;;;;;;4956932;29;20054;-69
2022/01/03 01:59:07;;;;;;;53.65;25.13;;;;;;;;;;4956781;29;20059;-69
2022/01/03 02:01:51;;;;;;;63.38;26.65;;;;;;;;;;4956854;29;20031;-69
2022/01/03 02:04:30;;;;;;;68.20;29.33;;;;;;;;;;4959816;28;20027;-70
2022/01/03 02:07:02;;;;;;;88.35;36.40;;;;;;;;;;5018285;28;20075;-70
2022/01/03 02:09:51;;;;;;;86.35;35.85;;;;;;;;;;5036585;28;20323;-70
2022/01/03 02:12:23;;;;;;;81.30;37.60;;;;;;;;;;5036625;28;20123;-69
2022/01/03 02:14:56;;;;;;;77.65;35.80;;;;;;;;;;5035774;28;20025;-70
2022/01/03 02:17:24;;;;;;;85.38;37.22;;;;;;;;;;5037132;28;20032;-70
2022/01/03 02:20:09;;;;;;;87.10;37.35;;;;;;;;;;5035255;28;20354;-69
2022/01/03 02:22:41;;;;;;;66.72;30.00;;;;;;;;;;5036721;28;20025;-69
2022/01/03 02:25:10;;;;;;;65.50;28.38;;;;;;;;;;5036677;28;20025;-70
2022/01/03 02:27:38;;;;;;;52.08;22.65;;;;;;;;;;5035487;28;20033;-69
2022/01/03 02:30:07;;;;;;;55.08;24.15;;;;;;;;;;5035511;28;20025;-70
2022/01/03 02:32:35;;;;;;;49.30;21.50;;;;;;;;;;5036504;28;20645;-70
2022/01/03 02:35:06;;;;;;;54.78;23.52;;;;;;;;;;5036546;28;20025;-69
2022/01/03 02:37:34;;;;;;;62.70;27.17;;;;;;;;;;5035413;28;20029;-69
2022/01/03 02:40:01;;;;;;;66.78;29.23;;;;;;;;;;5036461;28;20419;-70
2022/01/03 02:42:29;;;;;;;74.00;28.67;;;;;;;;;;5035298;28;20036;-69
2022/01/03 02:45:13;;;;;;;66.57;28.73;;;;;;;;;;5035270;28;20159;-70
2022/01/03 02:47:41;;;;;;;88.88;35.20;;;;;;;;;;5036302;28;20319;-69
2022/01/03 02:50:09;;;;;;;105.68;49.22;;;;;;;;;;5035553;28;20038;-70
2022/01/03 02:52:35;;;;;;;106.15;44.60;;;;;;;;;;5034198;28;20040;-69
2022/01/03 02:55:04;;;;;;;85.65;30.55;;;;;;;;;;5035224;28;20079;-67
2022/01/03 02:57:41;;;;;;;81.00;34.08;;;;;;;;;;5035489;28;20382;-67
2022/01/03 03:00:11;;;;;;;61.50;27.23;;;;;;;;;;5035452;28;20072;-67
2022/01/03 03:02:38;;;;;;;52.60;27.17;;;;;;;;;;5035232;28;20441;-67
2022/01/03 03:05:07;;;;;;;35.80;16.83;;;;;;;;;;5033990;28;20450;-67
2022/01/03 03:07:35;;;;;;;32.92;15.13;;;;;;;;;;5035073;28;20153;-67
2022/01/03 03:10:04;;;;;;;33.95;15.88;;;;;;;;;;5035135;28;20033;-66
2022/01/03 03:12:32;;;;;;;32.55;15.20;;;;;;;;;;5033892;28;20442;-66
2022/01/03 03:15:00;;;;;;;52.85;25.20;;;;;;;;;;5034722;28;20021;-67
2022/01/03 03:17:27;;;;;;;50.65;25.30;;;;;;;;;;5035442;28;20056;-67
2022/01/03 03:20:20;;;;;;;41.28;18.88;;;;;;;;;;5034942;28;20048;-65
2022/01/03 03:22:51;;;;;;;38.22;19.70;;;;;;;;;;4954876;29;20369;-66
2022/01/03 03:25:30;;;;;;;47.20;24.38;;;;;;;;;;4955183;29;20035;-66
2022/01/03 03:28:00;;;;;;;61.53;28.40;;;;;;;;;;4955132;29;20051;-66
2022/01/03 03:30:31;;;;;;;63.28;25.70;;;;;;;;;;4955485;28;20023;-65
2022/01/03 03:33:01;;;;;;;64.30;29.58;;;;;;;;;;4939016;29;20556;-66
2022/01/03 03:35:28;;;;;;;72.15;30.52;;;;;;;;;;4923316;29;20032;-66
2022/01/03 03:37:56;;;;;;;67.00;30.58;;;;;;;;;;4939203;29;20456;-66
2022/01/03 03:40:23;;;;;;;43.05;18.77;;;;;;;;;;4923346;29;20036;-65
2022/01/03 03:42:55;;;;;;;82.65;42.22;;;;;;;;;;4939217;29;20039;-66
2022/01/03 03:45:23;;;;;;;33.50;12.18;;;;;;;;;;4939177;29;20028;-65
2022/01/03 03:47:52;;;;;;;39.35;13.00;;;;;;;;;;4939053;29;20043;-66
2022/01/03 03:50:19;;;;;;;27.65;10.48;;;;;;;;;;4879868;29;1757322;-68
2022/01/03 03:52:46;;;;;;;24.45;10.52;;;;;;;;;;4940117;29;20463;-68
2022/01/03 03:55:13;;;;;;;26.20;9.23;;;;;;;;;;4940388;29;20024;-65
2022/01/03 03:57:41;;;;;;;48.90;9.27;;;;;;;;;;4940241;29;20027;-65
2022/01/03 04:00:15;;;;;;;24.73;8.90;;;;;;;;;;5013076;28;20040;-66
2022/01/03 04:02:42;;;;;;;133.10;12.82;;;;;;;;;;5037500;28;20026;-67
2022/01/03 04:05:10;;;;;;;27.40;8.90;;;;;;;;;;5039358;28;20415;-66
2022/01/03 04:07:38;;;;;;;21.88;8.25;;;;;;;;;;5039237;28;20033;-67
2022/01/03 04:10:07;;;;;;;18.75;8.30;;;;;;;;;;5038067;28;20033;-67
2022/01/03 04:12:34;;;;;;;23.17;10.73;;;;;;;;;;5038071;28;20025;-68
2022/01/03 04:15:03;;;;;;;33.35;15.45;;;;;;;;;;5038854;28;20021;-66
2022/01/03 04:17:30;;;;;;;22.25;8.07;;;;;;;;;;5040861;28;20415;-67
2022/01/03 04:19:57;;;;;;;26.50;8.98;;;;;;;;;;5039001;28;20030;-67
2022/01/03 04:22:25;;;;;;;21.55;7.50;;;;;;;;;;5039045;28;20032;-66
2022/01/03 04:24:52;;;;;;;18.77;6.43;;;;;;;;;;5037940;28;20039;-66
2022/01/03 04:27:20;;;;;;;32.92;13.35;;;;;;;;;;5037871;28;20108;-66
2022/01/03 04:29:48;;;;;;;67.40;26.05;;;;;;;;;;5038827;28;20017;-65
2022/01/03 04:32:15;;;;;;;75.97;32.63;;;;;;;;;;5038832;28;20021;-66
2022/01/03 04:34:43;;;;;;;57.85;23.83;;;;;;;;;;5037768;28;20342;-67
2022/01/03 04:37:13;;;;;;;57.70;25.10;;;;;;;;;;5038803;28;20036;-68
2022/01/03 04:39:41;;;;;;;45.45;22.58;;;;;;;;;;5038753;28;20354;-67
2022/01/03 04:42:12;;;;;;;42.92;18.58;;;;;;;;;;5038123;28;20018;-69
2022/01/03 04:44:39;;;;;;;25.38;11.15;;;;;;;;;;5038542;28;20026;-66
2022/01/03 04:47:07;;;;;;;22.40;10.63;;;;;;;;;;5038564;28;20029;-67
2022/01/03 04:49:34;;;;;;;25.98;11.70;;;;;;;;;;5038334;28;20076;-66
2022/01/03 04:52:02;;;;;;;25.17;11.65;;;;;;;;;;5038460;28;20033;-68
2022/01/03 04:54:29;;;;;;;31.17;13.55;;;;;;;;;;5038363;28;20075;-68
2022/01/03 04:56:59;;;;;;;25.67;9.73;;;;;;;;;;5037300;28;20112;-67
2022/01/03 04:59:26;;;;;;;27.33;11.80;;;;;;;;;;5038257;28;20025;-68
2022/01/03 05:01:54;;;;;;;25.50;12.45;;;;;;;;;;5038274;28;20021;-67
2022/01/03 05:04:22;;;;;;;21.08;9.25;;;;;;;;;;5038179;28;20051;-66
2022/01/03 05:06:49;;;;;;;16.20;9.77;;;;;;;;;;5036993;28;20053;-68
2022/01/03 05:09:17;;;;;;;25.27;11.93;;;;;;;;;;5037020;28;20086;-67
2022/01/03 05:11:45;;;;;;;19.58;9.30;;;;;;;;;;5037049;28;20301;-66
2022/01/03 05:14:12;;;;;;;20.50;7.63;;;;;;;;;;5037876;28;20315;-69
2022/01/03 05:16:40;;;;;;;73.38;41.90;;;;;;;;;;5037931;28;20021;-68
2022/01/03 05:19:07;;;;;;;45.00;24.50;;;;;;;;;;5037847;28;20034;-69
2022/01/03 05:21:35;;;;;;;29.05;13.98;;;;;;;;;;5036788;28;20030;-67
2022/01/03 05:24:02;;;;;;;27.10;12.85;;;;;;;;;;5037672;28;20026;-69
2022/01/03 05:26:30;;;;;;;22.17;11.32;;;;;;;;;;5037636;28;20028;-68
2022/01/03 05:28:58;;;;;;;28.92;14.73;;;;;;;;;;5037305;28;20368;-70
2022/01/03 05:31:25;;;;;;;28.23;14.05;;;;;;;;;;5036093;28;20033;-67
2022/01/03 05:33:53;;;;;;;26.98;13.77;;;;;;;;;;5036245;28;20025;-68
2022/01/03 05:36:20;;;;;;;39.30;20.50;;;;;;;;;;5036400;28;20021;-67
2022/01/03 05:38:47;;;;;;;108.53;53.42;;;;;;;;;;5036339;28;20420;-67
2022/01/03 05:41:15;;;;;;;69.22;37.28;;;;;;;;;;5037451;28;20390;-67
2022/01/03 05:43:42;;;;;;;44.15;24.75;;;;;;;;;;5037473;28;20092;-69
2022/01/03 05:46:10;;;;;;;63.03;36.42;;;;;;;;;;5037332;28;20022;-69
2022/01/03 05:48:36;;;;;;;19.60;9.60;;;;;;;;;;5036927;28;20021;-69
2022/01/03 05:51:05;;;;;;;33.42;18.98;;;;;;;;;;5036232;28;20029;-68
2022/01/03 05:53:33;;;;;;;17.52;9.77;;;;;;;;;;5035283;28;20045;-67
2022/01/03 05:56:01;;;;;;;28.90;15.73;;;;;;;;;;5037241;28;20370;-69
2022/01/03 05:58:28;;;;;;;41.45;19.88;;;;;;;;;;5037063;28;20021;-68
2022/01/03 06:00:56;;;;;;;72.68;37.78;;;;;;;;;;5037013;28;20079;-68
2022/01/03 06:03:24;;;;;;;73.97;38.72;;;;;;;;;;5037003;28;20025;-68
2022/01/03 06:08:26;;;;;;;65.78;33.20;;;;;;;;;;5036917;28;20316;-68
2022/01/03 06:10:54;;;;;;;67.60;36.05;;;;;;;;;;5036965;28;20053;-68
2022/01/03 06:13:21;;;;;;;65.82;32.17;;;;;;;;;;5036743;28;20060;-68
2022/01/03 06:15:49;;;;;;;57.70;28.98;;;;;;;;;;5036938;28;20067;-68
2022/01/03 06:18:17;;;;;;;73.03;32.25;;;;;;;;;;5036872;28;20172;-67
2022/01/03 06:20:45;;;;;;;68.70;32.55;;;;;;;;;;5035716;28;20037;-68
2022/01/03 06:23:13;;;;;;;55.00;27.25;;;;;;;;;;5035545;28;20029;-68
2022/01/03 06:25:41;;;;;;;72.03;32.65;;;;;;;;;;5035351;28;20083;-66
2022/01/03 06:28:09;;;;;;;68.35;33.75;;;;;;;;;;5036219;28;20123;-67
2022/01/03 06:30:40;;;;;;;64.88;31.55;;;;;;;;;;5035320;28;20029;-68
2022/01/03 06:33:08;;;;;;;73.60;33.30;;;;;;;;;;5036393;28;20480;-67
2022/01/03 06:35:36;;;;;;;70.40;32.20;;;;;;;;;;5034461;28;20112;-66
2022/01/03 06:38:04;;;;;;;66.45;32.90;;;;;;;;;;5034714;28;20029;-67
2022/01/03 06:40:32;;;;;;;94.53;39.80;;;;;;;;;;5034562;28;20069;-68
2022/01/03 06:43:00;;;;;;;71.05;33.92;;;;;;;;;;5017757;28;20037;-68
2022/01/03 06:45:27;;;;;;;69.25;31.65;;;;;;;;;;5034300;28;20493;-67
2022/01/03 06:47:55;;;;;;;59.75;31.15;;;;;;;;;;5017859;28;20084;-67
2022/01/03 06:50:21;;;;;;;70.05;32.17;;;;;;;;;;5034211;28;20077;-67
2022/01/03 06:52:48;;;;;;;67.95;32.15;;;;;;;;;;5017734;28;20022;-68
2022/01/03 06:55:16;;;;;;;60.00;28.40;;;;;;;;;;5034229;28;20156;-67
2022/01/03 06:57:44;;;;;;;54.88;28.15;;;;;;;;;;5017864;28;20032;-68
2022/01/03 07:00:12;;;;;;;59.47;30.55;;;;;;;;;;5034292;28;20103;-67
2022/01/03 07:02:42;;;;;;;66.32;30.80;;;;;;;;;;5034212;28;20048;-68
2022/01/03 07:05:10;;;;;;;63.03;30.70;;;;;;;;;;5034036;28;20054;-67
2022/01/03 07:07:38;;;;;;;64.43;31.73;;;;;;;;;;5033732;28;20029;-68
2022/01/03 07:10:09;;;;;;;66.68;31.50;;;;;;;;;;5035903;28;20025;-68
2022/01/03 07:12:37;;;;;;;82.13;35.78;;;;;;;;;;5036014;28;20064;-68
2022/01/03 07:20:38;;;;;;;72.05;34.42;;;;;;;;;;5028899;28;20544;-68
2022/01/03 07:23:05;;;;;;;74.68;36.38;;;;;;;;;;5023549;28;20203;-68
2022/01/03 07:25:33;;;;;;;91.88;40.63;;;;;;;;;;5024782;28;20033;-67
2022/01/03 07:28:00;;;;;;;79.53;38.15;;;;;;;;;;5024538;28;20056;-68
2022/01/03 07:30:28;;;;;;;79.63;38.25;;;;;;;;;;5007940;28;20037;-68
2022/01/03 07:32:56;;;;;;;123.18;61.78;;;;;;;;;;5008455;28;20036;-68
2022/01/03 07:35:23;;;;;;;135.63;65.32;;;;;;;;;;5002324;28;20029;-68
2022/01/03 07:37:53;;;;;;;143.77;73.80;;;;;;;;;;5045634;28;20032;-68
2022/01/03 07:40:21;;;;;;;134.50;68.45;;;;;;;;;;5051821;28;20106;-67
2022/01/03 07:42:49;;;;;;;119.97;62.53;;;;;;;;;;5036488;28;20418;-67
2022/01/03 07:45:17;;;;;;;106.95;53.28;;;;;;;;;;5053626;28;20041;-67
2022/01/03 07:47:44;;;;;;;95.80;47.83;;;;;;;;;;5054088;28;20037;-67
2022/01/03 07:50:11;;;;;;;93.10;47.80;;;;;;;;;;5054087;28;20342;-67
2022/01/03 07:52:39;;;;;;;75.43;35.45;;;;;;;;;;5055042;28;20032;-67
2022/01/03 07:55:11;;;;;;;55.97;28.88;;;;;;;;;;5053990;28;20029;-66
2022/01/03 07:57:39;;;;;;;54.70;26.17;;;;;;;;;;5053800;28;20029;-68
2022/01/03 08:00:08;;;;;;;52.85;25.42;;;;;;;;;;5052276;28;20018;-67
2022/01/03 08:02:38;;;;;;;48.63;22.40;;;;;;;;;;5034201;28;20030;-68
2022/01/03 08:05:07;;;;;;;46.58;21.52;;;;;;;;;;5034708;28;20369;-67
2022/01/03 08:07:34;;;;;;;48.47;22.10;;;;;;;;;;5033563;28;20045;-64
2022/01/03 08:10:04;;;;;;;43.20;21.40;;;;;;;;;;5035033;28;20071;-66
2022/01/03 08:12:31;;;;;;;53.28;25.42;;;;;;;;;;5034854;28;20018;-67
2022/01/03 08:14:59;;;;;;;49.78;25.20;;;;;;;;;;5035094;28;20330;-66
2022/01/03 08:17:27;;;;;;;53.97;26.92;;;;;;;;;;5037235;28;20120;-67
2022/01/03 08:19:55;;;;;;;60.65;27.27;;;;;;;;;;5038428;28;20033;-66
2022/01/03 08:22:22;;;;;;;56.63;26.98;;;;;;;;;;5038690;28;20080;-67
2022/01/03 08:24:50;;;;;;;54.78;26.70;;;;;;;;;;5038579;28;20032;-66
2022/01/03 08:27:20;;;;;;;52.97;25.35;;;;;;;;;;5035250;28;20117;-67
2022/01/03 08:30:08;;;;;;;58.42;25.73;;;;;;;;;;5006737;28;20362;-65
2022/01/03 08:32:36;;;;;;;48.00;25.15;;;;;;;;;;4990894;28;20084;-66
2022/01/03 08:35:04;;;;;;;49.47;23.42;;;;;;;;;;5003251;28;20080;-66
2022/01/03 08:37:33;;;;;;;50.72;23.67;;;;;;;;;;4969042;28;20062;-66
2022/01/03 08:40:04;;;;;;;53.15;26.08;;;;;;;;;;4977211;28;20038;-66
2022/01/03 08:42:31;;;;;;;49.58;24.23;;;;;;;;;;4977311;28;20023;-66
2022/01/03 08:45:00;;;;;;;56.17;27.38;;;;;;;;;;4977186;28;20448;-67
2022/01/03 08:47:27;;;;;;;56.10;28.77;;;;;;;;;;4977189;28;20027;-67
2022/01/03 08:49:54;;;;;;;53.35;27.27;;;;;;;;;;4977078;28;20051;-67
2022/01/03 08:52:20;;;;;;;61.00;31.05;;;;;;;;;;4977385;28;20031;-69
2022/01/03 08:54:48;;;;;;;56.00;27.15;;;;;;;;;;4977565;28;20039;-68
2022/01/03 08:57:16;;;;;;;53.13;27.17;;;;;;;;;;4978105;28;20384;-69
2022/01/03 08:59:43;;;;;;;54.75;28.25;;;;;;;;;;4976994;28;20050;-69
2022/01/03 09:02:11;;;;;;;57.83;28.77;;;;;;;;;;4977055;28;20023;-70
2022/01/03 09:04:39;;;;;;;57.33;28.00;;;;;;;;;;4977306;28;20081;-70
2022/01/03 09:07:07;;;;;;;55.25;27.52;;;;;;;;;;4977424;28;20026;-69
2022/01/03 09:09:34;;;;;;;56.05;28.23;;;;;;;;;;4976628;28;20026;-70
2022/01/03 09:12:02;;;;;;;57.05;26.38;;;;;;;;;;4977036;28;20118;-70
2022/01/03 09:14:29;;;;;;;54.28;26.70;;;;;;;;;;4976887;28;20039;-70
2022/01/03 09:16:57;;;;;;;52.60;26.85;;;;;;;;;;4976748;28;20043;-70
2022/01/03 09:19:25;;;;;;;55.78;26.52;;;;;;;;;;4976713;28;20123;-69
2022/01/03 09:22:00;;;;;;;55.15;28.05;;;;;;;;;;4976457;28;20123;-70
2022/01/03 09:24:42;;;;;;;56.03;28.20;;;;;;;;;;4976510;28;20101;-68
2022/01/03 09:29:58;;;;;;;64.15;29.85;;;;;;;;;;4975989;28;20101;-69
2022/01/03 09:32:25;;;;;;;69.15;30.48;;;;;;;;;;4976583;28;20093;-69
2022/01/03 09:34:53;;;;;;;68.65;30.90;;;;;;;;;;5005867;28;20121;-70
2022/01/03 09:37:23;;;;;;;73.47;34.42;;;;;;;;;;4998595;28;20127;-69
2022/01/03 09:39:54;;;;;;;76.85;36.80;;;;;;;;;;5017827;28;20044;-70
2022/01/03 09:42:24;;;;;;;80.80;37.85;;;;;;;;;;5037223;28;20017;-69
2022/01/03 09:44:51;;;;;;;78.32;36.70;;;;;;;;;;5037187;28;20024;-69
2022/01/03 09:47:20;;;;;;;77.70;38.95;;;;;;;;;;5036088;28;20026;-69
2022/01/03 09:49:49;;;;;;;75.03;36.03;;;;;;;;;;5038045;28;20106;-69
2022/01/03 09:52:20;;;;;;;71.30;32.45;;;;;;;;;;5037002;28;20029;-68
2022/01/03 09:54:47;;;;;;;70.95;33.97;;;;;;;;;;5035622;28;20036;-69
2022/01/03 09:57:16;;;;;;;69.68;32.22;;;;;;;;;;5036185;28;20033;-68
2022/01/03 09:59:43;;;;;;;69.45;32.85;;;;;;;;;;5035562;28;20022;-67
2022/01/03 10:02:15;;;;;;;68.68;32.38;;;;;;;;;;5036603;28;20033;-69
2022/01/03 10:04:43;;;;;;;73.05;35.13;;;;;;;;;;5034677;28;20041;-69
2022/01/03 10:07:11;;;;;;;81.60;39.70;;;;;;;;;;5018491;28;20041;-68
2022/01/03 10:09:42;;;;;;;99.18;44.25;;;;;;;;;;5018010;28;20080;-68
2022/01/03 10:12:14;;;;;;;105.82;48.50;;;;;;;;;;5034906;28;20103;-71
2022/01/03 10:14:43;;;;;;;98.00;46.75;;;;;;;;;;5034886;28;20064;-69
2022/01/03 10:17:11;;;;;;;87.47;41.28;;;;;;;;;;5034702;28;20457;-69
2022/01/03 10:19:55;;;;;;;97.00;38.20;;;;;;;;;;5034723;28;20083;-69
2022/01/03 10:22:25;;;;;;;77.55;37.22;;;;;;;;;;5034600;28;20049;-69
2022/01/03 10:24:56;;;;;;;115.38;34.03;;;;;;;;;;4998472;28;20121;-67
2022/01/03 10:27:24;;;;;;;70.43;30.08;;;;;;;;;;4998528;28;20034;-69
2022/01/03 10:29:55;;;;;;;74.97;30.85;;;;;;;;;;4998443;28;20030;-69
2022/01/03 10:32:30;;;;;;;62.38;28.38;;;;;;;;;;4998374;28;20037;-68
2022/01/03 10:34:59;;;;;;;62.00;26.92;;;;;;;;;;4998249;28;20034;-68
2022/01/03 10:37:36;;;;;;;52.55;24.63;;;;;;;;;;4998139;28;20029;-68
2022/01/03 10:40:25;;;;;;;47.75;20.55;;;;;;;;;;4998032;28;20029;-68
2022/01/03 10:42:53;;;;;;;43.85;18.42;;;;;;;;;;4998284;28;20041;-68
2022/01/03 10:45:34;;;;;;;44.38;20.30;;;;;;;;;;5014741;28;20177;-69
2022/01/03 10:48:01;;;;;;;41.05;18.63;;;;;;;;;;4998275;28;20029;-69
2022/01/03 10:50:28;;;;;;;44.92;21.02;;;;;;;;;;5014529;28;20058;-70
2022/01/03 10:52:55;;;;;;;44.70;21.00;;;;;;;;;;4998054;28;20042;-68
2022/01/03 10:55:38;;;;;;;44.42;21.52;;;;;;;;;;4998180;28;20018;-68
2022/01/03 10:58:06;;;;;;;50.03;23.88;;;;;;;;;;5014146;28;20034;-69
2022/01/03 11:00:37;;;;;;;49.63;23.10;;;;;;;;;;5014321;28;20038;-70
2022/01/03 11:03:34;;;;;;;51.97;23.33;;;;;;;;;;5014209;28;20026;-69
2022/01/03 11:06:14;;;;;;;48.38;21.95;;;;;;;;;;4997980;28;20026;-68
2022/01/03 11:11:58;;;;;;;47.53;23.15;;;;;;;;;;5036010;28;20362;-69
2022/01/03 11:14:57;;;;;;;52.55;23.63;;;;;;;;;;5034063;28;20061;-69
2022/01/03 11:17:30;;;;;;;42.63;21.98;;;;;;;;;;4955978;29;20043;-69
2022/01/03 11:20:00;;;;;;;49.50;21.60;;;;;;;;;;4939966;29;20031;-70
2022/01/03 11:22:48;;;;;;;44.65;20.98;;;;;;;;;;4955973;29;20038;-68
2022/01/03 11:25:18;;;;;;;42.35;18.90;;;;;;;;;;4955893;29;20039;-68
2022/01/03 11:27:45;;;;;;;42.92;18.42;;;;;;;;;;4955907;29;20135;-68
2022/01/03 11:30:13;;;;;;;42.13;17.80;;;;;;;;;;4939867;29;20039;-68
2022/01/03 11:32:43;;;;;;;37.20;17.83;;;;;;;;;;4955881;29;20058;-68
2022/01/03 11:35:11;;;;;;;37.80;16.52;;;;;;;;;;4955879;29;20065;-68
2022/01/03 11:37:40;;;;;;;36.60;15.73;;;;;;;;;;4955692;29;20027;-68
2022/01/03 11:40:09;;;;;;;36.15;15.88;;;;;;;;;;4955860;29;20377;-68
2022/01/03 11:42:39;;;;;;;46.58;17.27;;;;;;;;;;4955891;29;20417;-67
2022/01/03 11:45:07;;;;;;;36.75;16.13;;;;;;;;;;4955814;29;20038;-68
2022/01/03 11:47:36;;;;;;;37.58;16.25;;;;;;;;;;5018007;28;20039;-68
2022/01/03 11:50:03;;;;;;;37.10;17.13;;;;;;;;;;5034249;28;20049;-68
2022/01/03 11:52:30;;;;;;;37.13;16.63;;;;;;;;;;5036561;28;20021;-68
2022/01/03 11:54:58;;;;;;;42.92;17.00;;;;;;;;;;5039455;28;20029;-69
2022/01/03 11:57:46;;;;;;;42.67;17.92;;;;;;;;;;5039498;28;20026;-71
2022/01/03 12:05:54;;;;;;;47.88;20.92;;;;;;;;;;5039478;28;20504;-69
2022/01/03 12:08:26;;;;;;;46.88;22.80;;;;;;;;;;5038263;28;20418;-69
2022/01/03 12:10:53;;;;;;;47.80;22.20;;;;;;;;;;5039351;28;20450;-69
2022/01/03 12:13:41;;;;;;;55.65;24.67;;;;;;;;;;5039122;28;20030;-68
2022/01/03 12:16:09;;;;;;;64.53;27.40;;;;;;;;;;5039134;28;20037;-69
2022/01/03 12:18:39;;;;;;;61.60;28.00;;;;;;;;;;5039100;28;20418;-69
2022/01/03 12:21:07;;;;;;;75.85;29.95;;;;;;;;;;5037936;28;20418;-69
2022/01/03 12:23:46;;;;;;;83.68;31.15;;;;;;;;;;5037780;28;20029;-70
2022/01/03 12:26:23;;;;;;;73.55;32.63;;;;;;;;;;5038794;28;20053;-70
2022/01/03 12:29:08;;;;;;;86.78;34.42;;;;;;;;;;5038832;28;20030;-69
2022/01/03 12:31:55;;;;;;;84.75;36.10;;;;;;;;;;5037728;28;20038;-69
2022/01/03 12:34:23;;;;;;;119.15;57.20;;;;;;;;;;5038801;28;20026;-69
2022/01/03 12:37:09;;;;;;;127.03;56.90;;;;;;;;;;5037581;28;20319;-70
2022/01/03 12:39:57;;;;;;;128.82;63.40;;;;;;;;;;5038737;28;20017;-69
2022/01/03 12:42:44;;;;;;;137.05;65.90;;;;;;;;;;5038676;28;20032;-69
2022/01/03 12:45:12;;;;;;;120.00;60.90;;;;;;;;;;4958586;29;20043;-69
2022/01/03 12:47:41;;;;;;;117.15;55.13;;;;;;;;;;4958551;29;20067;-70
2022/01/03 12:50:21;;;;;;;141.07;64.72;;;;;;;;;;4942175;29;20047;-69
2022/01/03 12:52:47;;;;;;;182.63;84.53;;;;;;;;;;4958280;29;20038;-69
2022/01/03 12:55:34;;;;;;;188.93;88.40;;;;;;;;;;4958422;29;20031;-69
2022/01/03 12:58:01;;;;;;;220.52;101.32;;;;;;;;;;4958401;29;20077;-70
2022/01/03 13:00:52;;;;;;;223.45;107.38;;;;;;;;;;4942236;29;20019;-69
2022/01/03 13:03:26;;;;;;;234.32;109.40;;;;;;;;;;4900891;29;20226;-69
2022/01/03 13:06:11;;;;;;;215.75;102.00;;;;;;;;;;4901004;29;20153;-69
2022/01/03 13:08:39;;;;;;;227.93;102.75;;;;;;;;;;4900928;29;20071;-69
2022/01/03 13:11:08;;;;;;;211.77;101.10;;;;;;;;;;4901113;29;20025;-69
2022/01/03 13:13:37;;;;;;;193.70;95.78;;;;;;;;;;4900870;29;20032;-70
2022/01/03 13:16:22;;;;;;;179.60;87.40;;;;;;;;;;4900831;29;20112;-70
2022/01/03 13:18:54;;;;;;;161.80;81.40;;;;;;;;;;4900805;29;20032;-70
2022/01/03 13:21:23;;;;;;;137.43;68.15;;;;;;;;;;4907757;29;20044;-69
2022/01/03 13:24:03;;;;;;;134.35;61.33;;;;;;;;;;4958002;29;20031;-69
2022/01/03 13:26:31;;;;;;;98.03;45.95;;;;;;;;;;4957922;29;20049;-68
2022/01/03 13:29:04;;;;;;;105.55;49.55;;;;;;;;;;4941725;29;20452;-68
2022/01/03 13:31:39;;;;;;;109.90;51.92;;;;;;;;;;4957782;29;20067;-68
2022/01/03 13:34:07;;;;;;;100.22;50.00;;;;;;;;;;4957639;29;20043;-68
2022/01/03 13:36:41;;;;;;;98.93;45.88;;;;;;;;;;4957607;29;20040;-68
2022/01/03 13:39:14;;;;;;;91.10;45.70;;;;;;;;;;4943420;28;20050;-68
2022/01/03 13:41:43;;;;;;;94.90;45.47;;;;;;;;;;5037658;28;20082;-69
2022/01/03 13:44:20;;;;;;;93.35;46.95;;;;;;;;;;5036426;28;20076;-69
2022/01/03 13:49:48;;;;;;;98.40;47.42;;;;;;;;;;4976506;28;20046;-68
2022/01/03 13:52:14;;;;;;;92.82;45.25;;;;;;;;;;4960447;28;20074;-68
2022/01/03 13:54:42;;;;;;;99.07;44.92;;;;;;;;;;4976557;28;20042;-68
2022/01/03 13:57:09;;;;;;;90.10;44.00;;;;;;;;;;4976704;28;20431;-68
2022/01/03 13:59:37;;;;;;;84.70;44.38;;;;;;;;;;4976479;28;20038;-68
2022/01/03 14:02:06;;;;;;;100.57;47.13;;;;;;;;;;4976512;28;20030;-68
2022/01/03 14:04:35;;;;;;;106.30;49.53;;;;;;;;;;4976350;28;20089;-69
2022/01/03 14:07:06;;;;;;;98.85;48.63;;;;;;;;;;4976465;28;20124;-68
2022/01/03 14:09:59;;;;;;;103.43;49.00;;;;;;;;;;4960206;28;20069;-68
2022/01/03 14:12:28;;;;;;;107.40;48.90;;;;;;;;;;4976366;28;20456;-69
2022/01/03 14:14:56;;;;;;;118.50;53.33;;;;;;;;;;4959384;28;20102;-68
2022/01/03 14:17:24;;;;;;;115.43;52.17;;;;;;;;;;4976216;28;20031;-67
2022/01/03 14:20:03;;;;;;;114.60;52.78;;;;;;;;;;4976175;28;20395;-69
2022/01/03 14:22:39;;;;;;;109.95;51.05;;;;;;;;;;4976244;28;20023;-68
2022/01/03 14:25:11;;;;;;;106.32;49.50;;;;;;;;;;4976134;28;20424;-68
2022/01/03 14:27:43;;;;;;;102.72;50.30;;;;;;;;;;5030369;28;20465;-68
2022/01/03 14:30:17;;;;;;;110.63;52.40;;;;;;;;;;5036779;28;20049;-68
2022/01/03 14:32:49;;;;;;;128.10;56.95;;;;;;;;;;5036594;28;20029;-68
2022/01/03 14:35:28;;;;;;;114.80;55.30;;;;;;;;;;5036577;28;20029;-68
2022/01/03 14:37:59;;;;;;;115.70;57.17;;;;;;;;;;5036609;28;20067;-68
2022/01/03 14:40:36;;;;;;;118.97;55.65;;;;;;;;;;5035474;28;20425;-69
2022/01/03 14:43:04;;;;;;;113.22;54.20;;;;;;;;;;5035454;28;20030;-68
2022/01/03 14:45:34;;;;;;;113.22;51.72;;;;;;;;;;5036523;28;20407;-68
2022/01/03 14:48:03;;;;;;;103.35;51.47;;;;;;;;;;5036473;28;20075;-68
2022/01/03 14:50:30;;;;;;;105.40;49.63;;;;;;;;;;5036316;28;20053;-68
2022/01/03 14:52:57;;;;;;;113.20;52.58;;;;;;;;;;5036267;28;20036;-70
2022/01/03 14:55:36;;;;;;;117.30;53.72;;;;;;;;;;5036267;28;20322;-69
2022/01/03 14:58:04;;;;;;;126.47;60.20;;;;;;;;;;5036330;28;20375;-68
2022/01/03 15:00:33;;;;;;;143.85;64.95;;;;;;;;;;5036270;28;20079;-69